Conway, North Dakota
Current Conditions -  °F | °C
As of 5:35 PM on Wednesday 22 Oct 2014 (Local Time) from KGAF Reporting Station
Scattered Clouds Scattered Clouds  
Wind Chill: 55°   Ceiling: Unl
Heat Index: 55°   Visibility: 8mi
Dew Point: 55°   Wind: 9mph
Humidity: 100%   Direction: 210°SSW
Pressure: 29.79"   Gusts: NA
Location:  48.2362°N, 97.4515°W
Report Text: KGAF 222235Z AUTO 21008KT 8SM FEW038 SCT047 SCT075 13/13 A2979 RMK AO2
Loading
Personal Weather Stations






























Interactive Weather Map
Tropical Storm Tracking
New forecast layout! Learn more

10-Day Weather Forecast

Advertisements
Track Severe Weather on mobile